NZOH/OHA METAR and TAF weather

Enter ICAO airport designator
Station Type Date Time Source
NZOH METAR 2022/06/26 00:00 UTC NOAA

NZOH 260000Z 32011KT 35KM VCSH FEW018 SCT027 BKN032 14/12 Q1020 NOSIG


Station Type Date Time Source
NZOH Decoded METAR 2022/06/26 00:00 UTC NOAA

Ohakea, New Zealand (NZOH) 40-12S 175-22E 52M
Jun 25, 2022 - 08:00 PM EDT / 2022.06.26 0000 UTC
Wind: from the NW (320 degrees) at 13 MPH (11 KT):0
Sky conditions: mostly cloudy
Weather: showers in the vicinity
Temperature: 57 F (14 C)
Dew Point: 53 F (12 C)
Relative Humidity: 87%
Pressure (altimeter): 30.12 in. Hg (1020 hPa)
ob: NZOH 260000Z 32011KT 35KM VCSH FEW018 SCT027 BKN032 14/12 Q1020 NOSIG
cycle: 0

Station Type Date Time Source
NZOH TAF 2007/12/14 04:59 UTC NOAA

TAF NZOH 140459Z 140606 11020KT 30KM SCT080 BECMH 0911 03008KT
BECMG 2224 27012KT

Example: see airport list